Detall de PIREP

Printer-friendly versionPDF version

[2010/02/19 21:43:00]
Flight IATA:CT2201
Pilot Number:026
Company ICAO:CAT
Aircraft Type:A320/E
PAX:136
Departing Airport: LFOH
Destination Airport: LFMP
Alternate Airport:LFBO
Online: VATSIM
Route:DVL UN859 GAI/N0300F190 G36 ORBIL
Flight Level:FL310
No Slew and time accel
No pause
Crash detect
Detect pilot in Cockpit between each 30 and 45 minutes
21:43 Zero fuel Weight: 189727 Lbs, Fuel Weight: 26025 Lbs
21:43 VATSIM:LFOH 192130Z AUTO 24013KT 9999NDV FEW013 03/01 Q0998
21:43 VATSIM:LFMP 192130Z AUTO 31012KT 280V350 9999NDV NSC 09/00 Q1001
21:43 VOICE CATALONIAN
21:59 Parking Brakes off
22:09 Take-off
22:09 Take off Weight: 214576 Lbs
22:09 Wind: 121º @ 011 Knots Heading: 219º
22:09 POS N49º 31´ 41´´ E000º 04´ 47´´
22:09 Flaps:2 at 164 Knots
22:09 Gear Up: 166 Knots
22:10 Flaps:1 at 181 Knots
22:11 Flaps:0 at 155 Knots
22:24 Wind:232º@024 Knots Heading: 165º G
round Speed: 440 Knots Altitude 28832 ft
22:26 TOC
22:26 Fuel Weight: 19313 Lb
22:39 Wind:232º@020 Knots Heading: 160º Ground Speed: 461 Knots Altitude 30679 ft
22:51 TOD
22:51 Fuel Weight: 13254 Lb
22:54 Wind:278º@021 Knots Heading: 180º Ground Speed: 476 Knots Altitude 27230 ft
23:09 Wind:307º@010 Knots Heading: 138º Ground Speed: 259 Knots Altitude 7591 ft
23:15 Flaps:1 at 178 Knots
23:20 Gear Down: 226 Knots
23:20 Flaps:2 at 210 Knots
23:21 Flaps:3 at 174 Knots
23:21 Flaps:4 at 165 Knots
23:21 Flaps:5 at 158 Knots
23:22 TouchDown:Rate -124 ft/min Speed: 130 Knots
23:22 VATSIM:LFMP 192300Z AUTO 31020KT 9999NDV NSC 08/01 Q1002
23:22 Land
23:22 Wind:313º@020 Knots
23:22 Heading: 330º
23:22 Flight Duration: 01:13
23:22 Landing Weight: 199296 Lbs
23:22 POS N42º 44´ 48´´ E002º 52´ 03´´
23:36 Parking brakes on
23:36 Block to Block Duration: 01:37
23:36
Final Fuel: 8353 Lbls
23:36 Spent Fuel: 17671 Lbls
23:36 Flight Length: 462 NM
23:36 TOD Land Length: 166 NM

Exportar CSV

Powered by Drupal - Modified by Danger4k